EDT,Max TemperatureF,Mean TemperatureF,Min TemperatureF,Max Dew PointF,MeanDew PointF,Min DewpointF,Max Humidity, Mean Humidity, Min Humidity, Max Sea Level PressureIn, Mean Sea Level PressureIn, Min Sea Level PressureIn, Max VisibilityMiles, Mean VisibilityMiles, Min VisibilityMiles, Max Wind SpeedMPH, Mean Wind SpeedMPH, Max Gust SpeedMPH,PrecipitationIn, CloudCover, Events, WindDirDegrees
2012-10-1,67,52,37,48,41,35,100,71,42,29.98,29.94,29.87,10,5,0,7,1,12,0.00,2,Fog,80
2012-10-2,71,61,51,50,47,45,77,61,44,29.94,29.89,29.85,10,10,10,15,6,18,T,5,,58
2012-10-3,66,61,56,59,55,51,97,82,67,30.06,29.99,29.93,10,8,0,12,4,15,0.04,8,Fog-Rain,179
2012-10-4,77,67,56,59,52,48,83,61,38,30.07,30.03,29.97,10,10,8,21,10,26,0.06,5,Rain,220
2012-10-5,62,55,47,59,44,39,83,67,51,30.07,30.01,29.96,10,10,10,18,10,24,T,5,Rain,249
2012-10-6,53,46,38,40,34,29,92,67,42,30.14,30.02,29.93,10,10,9,23,10,30,0.00,7,,267
2012-10-7,51,42,32,37,33,27,89,67,45,30.16,30.12,30.09,10,10,10,9,3,28,0.01,7,Rain,266
2012-10-8,56,43,29,33,28,25,92,62,32,30.21,30.16,30.10,10,10,10,16,7,23,0.00,1,,206
2012-10-9,63,51,39,36,33,28,62,49,36,30.10,29.98,29.80,10,10,10,22,11,30,0.00,0,,194
2012-10-10,54,44,33,41,35,24,89,67,45,30.17,29.91,29.76,10,9,5,26,12,39,0.17,7,Rain,272
2012-10-11,63,48,32,41,33,26,82,57,32,30.20,30.11,30.00,10,10,6,29,12,45,0.07,4,Rain,253
2012-10-12,52,40,27,35,29,22,85,59,33,30.48,30.36,30.20,10,10,9,10,4,16,T,2,Rain,321
2012-10-13,64,47,30,59,44,27,93,85,76,30.39,30.07,29.86,10,7,2,20,10,25,0.74,6,Rain,178
2012-10-14,70,61,52,63,60,55,93,80,66,29.85,29.69,29.39,10,6,2,32,13,40,0.25,7,Rain,203
2012-10-15,52,49,45,54,42,36,80,73,65,29.95,29.75,29.45,10,9,2,26,14,35,T,8,Rain,282
2012-10-16,59,46,32,42,36,30,92,68,43,30.00,29.90,29.75,10,10,10,14,6,20,T,2,Rain,195
2012-10-17,75,64,52,55,46,42,72,53,33,29.73,29.63,29.54,10,10,10,29,14,41,0.06,4,Rain,183
2012-10-18,60,54,47,54,44,33,86,62,37,29.66,29.50,29.36,10,9,4,24,12,32,0.34,6,Rain,179
2012-10-19,55,50,45,45,41,37,93,74,55,29.65,29.59,29.55,10,9,5,20,8,24,0.13,8,Rain,159
2012-10-20,56,49,42,45,44,41,93,80,66,29.91,29.68,29.58,10,8,4,17,7,22,0.14,7,Rain,252
2012-10-21,62,47,32,46,39,32,100,73,46,30.10,30.04,29.93,10,7,0,14,4,18,0.00,0,Fog,229
2012-10-22,73,56,38,57,48,36,92,73,53,30.10,30.04,29.97,10,9,4,13,5,17,0.36,3,Rain,168
2012-10-23,64,62,60,61,59,57,97,91,84,30.00,29.96,29.89,9,3,1,12,4,15,0.37,8,Rain-Thunderstorm,246
2012-10-24,79,70,60,61,59,57,97,76,54,30.02,29.99,29.94,10,8,3,12,6,16,0.02,4,Rain,181
2012-10-25,78,69,60,58,54,51,73,58,43,29.96,29.89,29.80,10,10,10,25,12,32,0.00,0,,188
2012-10-26,71,57,42,55,41,32,86,69,52,30.26,30.11,29.81,10,9,4,29,10,35,0.04,5,Rain,304
2012-10-27,53,44,34,38,32,30,82,62,41,30.26,30.23,30.17,10,10,10,18,9,24,0.00,2,,4
2012-10-28,48,42,36,36,30,26,76,63,49,30.25,30.22,30.16,10,10,10,24,13,31,T,6,Rain,9
2012-10-29,44,40,36,30,27,23,64,55,45,30.15,30.04,29.81,10,10,10,32,19,44,T,8,Snow,349
2012-10-30,40,37,34,37,33,30,96,86,76,29.78,29.59,29.51,9,3,1,26,18,38,0.49,8,Rain-Snow,339
2012-10-31,43,40,36,39,35,33,92,84,76,29.68,29.60,29.53,10,6,2,20,13,25,0.03,8,Rain,309